Time;durP1;ratioP1;P1;durP2;ratioP2;P2;SDS_P1;SDS_P2;PMS_P1;PMS_P2;Temp;Humidity;BMP_temperature;BMP_pressure;BME280_temperature;BME280_humidity;BME280_pressure;Samples;Min_cycle;Max_cycle;Signal;HPM_P1;HPM_P2
2021/04/24 00:01:18;;;;;;;20.67;10.73;;;;;;;;;;4983672;28;20544;-69
2021/04/24 00:03:44;;;;;;;25.00;10.57;;;;;;;;;;4994917;28;20198;-68
2021/04/24 00:06:09;;;;;;;21.57;11.03;;;;;;;;;;4996555;28;20186;-69
2021/04/24 00:08:35;;;;;;;22.73;10.73;;;;;;;;;;4983262;28;20607;-69
2021/04/24 00:11:00;;;;;;;23.07;10.87;;;;;;;;;;4999083;28;20661;-69
2021/04/24 00:13:26;;;;;;;18.13;10.00;;;;;;;;;;4986978;28;20690;-70
2021/04/24 00:15:52;;;;;;;20.87;10.73;;;;;;;;;;5009579;28;20184;-70
2021/04/24 00:18:17;;;;;;;23.37;10.53;;;;;;;;;;4987453;28;20199;-70
2021/04/24 00:20:43;;;;;;;21.00;10.27;;;;;;;;;;4994002;28;20635;-70
2021/04/24 00:23:09;;;;;;;21.10;9.70;;;;;;;;;;4992254;28;20188;-70
2021/04/24 00:25:35;;;;;;;20.47;10.77;;;;;;;;;;5005040;28;20202;-70
2021/04/24 00:28:01;;;;;;;21.83;10.50;;;;;;;;;;4987671;28;20250;-70
2021/04/24 00:30:26;;;;;;;22.37;10.57;;;;;;;;;;4995875;28;20202;-70
2021/04/24 00:32:52;;;;;;;23.17;10.20;;;;;;;;;;4987214;28;20270;-70
2021/04/24 00:35:19;;;;;;;22.03;10.27;;;;;;;;;;4993178;28;20214;-70
2021/04/24 00:37:45;;;;;;;29.10;9.80;;;;;;;;;;4995838;28;20198;-70
2021/04/24 00:40:11;;;;;;;21.37;10.33;;;;;;;;;;4987420;28;20190;-70
2021/04/24 00:42:37;;;;;;;20.77;10.60;;;;;;;;;;4997671;28;20227;-70
2021/04/24 00:45:05;;;;;;;19.43;10.17;;;;;;;;;;4990814;28;20304;-70
2021/04/24 00:47:31;;;;;;;20.00;10.13;;;;;;;;;;4995442;28;20183;-70
2021/04/24 00:49:56;;;;;;;22.97;11.10;;;;;;;;;;4991565;28;20191;-70
2021/04/24 00:52:21;;;;;;;19.83;9.67;;;;;;;;;;4997745;28;20179;-69
2021/04/24 00:54:47;;;;;;;22.30;10.10;;;;;;;;;;4996441;28;20206;-69
2021/04/24 00:57:13;;;;;;;22.97;10.27;;;;;;;;;;4998809;28;20237;-69
2021/04/24 00:59:40;;;;;;;19.27;9.37;;;;;;;;;;4990103;28;20562;-69
2021/04/24 01:02:07;;;;;;;17.87;9.70;;;;;;;;;;4992284;28;20209;-69
2021/04/24 01:04:33;;;;;;;21.53;10.73;;;;;;;;;;4985587;28;21507;-69
2021/04/24 01:06:58;;;;;;;21.00;10.27;;;;;;;;;;5000521;28;20642;-70
2021/04/24 01:09:25;;;;;;;22.13;9.87;;;;;;;;;;4993073;28;20231;-70
2021/04/24 01:11:50;;;;;;;21.40;10.27;;;;;;;;;;4986731;28;20646;-70
2021/04/24 01:14:15;;;;;;;20.10;9.73;;;;;;;;;;4998275;28;20254;-70
2021/04/24 01:16:42;;;;;;;23.20;11.00;;;;;;;;;;4989023;28;20660;-70
2021/04/24 01:19:13;;;;;;;19.73;9.47;;;;;;;;;;4992784;28;20187;-70
2021/04/24 01:21:40;;;;;;;19.23;9.77;;;;;;;;;;4993195;28;20188;-70
2021/04/24 01:24:07;;;;;;;19.67;9.57;;;;;;;;;;4993819;28;20252;-70
2021/04/24 01:26:34;;;;;;;20.23;8.90;;;;;;;;;;4987651;28;20612;-70
2021/04/24 01:28:59;;;;;;;25.23;9.70;;;;;;;;;;4995117;28;20214;-70
2021/04/24 01:31:25;;;;;;;21.80;9.20;;;;;;;;;;4987552;28;20196;-70
2021/04/24 01:33:50;;;;;;;20.83;9.43;;;;;;;;;;4996774;28;20211;-70
2021/04/24 01:36:15;;;;;;;25.43;10.27;;;;;;;;;;4991448;28;20269;-70
2021/04/24 01:38:41;;;;;;;16.93;9.37;;;;;;;;;;4999630;28;20218;-70
2021/04/24 01:41:06;;;;;;;19.07;9.03;;;;;;;;;;4998177;28;20195;-70
2021/04/24 01:43:32;;;;;;;17.73;8.70;;;;;;;;;;4991709;28;20184;-70
2021/04/24 01:45:59;;;;;;;21.50;9.10;;;;;;;;;;4995455;28;20230;-70
2021/04/24 01:48:24;;;;;;;23.20;9.93;;;;;;;;;;4988019;28;20249;-70
2021/04/24 01:50:50;;;;;;;20.87;9.50;;;;;;;;;;4994504;28;20569;-70
2021/04/24 01:53:21;;;;;;;19.57;9.87;;;;;;;;;;4987872;28;20750;-70
2021/04/24 01:55:48;;;;;;;20.10;9.67;;;;;;;;;;5001058;28;20195;-70
2021/04/24 01:58:18;;;;;;;21.77;9.47;;;;;;;;;;4992538;28;20586;-70
2021/04/24 02:00:53;;;;;;;20.63;9.73;;;;;;;;;;4997968;28;20230;-69
2021/04/24 02:03:18;;;;;;;19.53;9.93;;;;;;;;;;4986218;28;20225;-70
2021/04/24 02:05:46;;;;;;;26.97;10.27;;;;;;;;;;4991606;28;20534;-70
2021/04/24 02:08:24;;;;;;;24.00;9.87;;;;;;;;;;4983605;28;20253;-70
2021/04/24 02:10:54;;;;;;;20.13;10.10;;;;;;;;;;4992059;28;20608;-71
2021/04/24 02:13:22;;;;;;;24.93;10.33;;;;;;;;;;4986872;28;20274;-70
2021/04/24 02:15:48;;;;;;;21.60;10.17;;;;;;;;;;4997283;28;20234;-70
2021/04/24 02:18:14;;;;;;;24.63;10.70;;;;;;;;;;4985330;28;20204;-70
2021/04/24 02:20:41;;;;;;;24.23;10.60;;;;;;;;;;4993612;28;20282;-70
2021/04/24 02:23:08;;;;;;;22.07;10.33;;;;;;;;;;4989051;28;20635;-70
2021/04/24 02:25:34;;;;;;;22.17;10.23;;;;;;;;;;4989686;28;20187;-70
2021/04/24 02:28:00;;;;;;;24.87;10.10;;;;;;;;;;4990963;28;20198;-70
2021/04/24 02:30:25;;;;;;;21.90;9.97;;;;;;;;;;4990436;28;20187;-70
2021/04/24 02:32:50;;;;;;;19.47;9.77;;;;;;;;;;4994897;28;20238;-69
2021/04/24 02:35:26;;;;;;;22.13;9.17;;;;;;;;;;4986081;28;20577;-69
2021/04/24 02:37:51;;;;;;;22.60;10.53;;;;;;;;;;4992989;28;20238;-69
2021/04/24 02:40:20;;;;;;;24.83;10.77;;;;;;;;;;4986301;28;20309;-70
2021/04/24 02:42:46;;;;;;;29.77;9.67;;;;;;;;;;4995596;28;20198;-70
2021/04/24 02:45:13;;;;;;;19.90;9.53;;;;;;;;;;4989550;28;20841;-70
2021/04/24 02:47:39;;;;;;;22.93;9.80;;;;;;;;;;4991393;28;20179;-70
2021/04/24 02:50:07;;;;;;;20.07;10.20;;;;;;;;;;4986986;28;20193;-70
2021/04/24 02:52:33;;;;;;;21.23;9.80;;;;;;;;;;4994628;28;20537;-70
2021/04/24 02:54:58;;;;;;;25.00;10.87;;;;;;;;;;4989936;28;20615;-70
2021/04/24 02:57:24;;;;;;;21.70;10.13;;;;;;;;;;4982158;28;21017;-70
2021/04/24 02:59:49;;;;;;;23.50;10.80;;;;;;;;;;4999602;28;20182;-70
2021/04/24 03:02:16;;;;;;;29.83;10.53;;;;;;;;;;4985955;28;20560;-70
2021/04/24 03:04:42;;;;;;;20.67;10.33;;;;;;;;;;5001762;28;20186;-70
2021/04/24 03:07:07;;;;;;;22.87;9.97;;;;;;;;;;4981776;28;20191;-70
2021/04/24 03:09:33;;;;;;;23.67;10.60;;;;;;;;;;4989745;28;20198;-69
2021/04/24 03:11:58;;;;;;;24.43;9.93;;;;;;;;;;4985951;28;20191;-69
2021/04/24 03:14:24;;;;;;;23.93;10.33;;;;;;;;;;4993302;28;20190;-69
2021/04/24 03:16:49;;;;;;;21.90;9.73;;;;;;;;;;4987715;28;20215;-69
2021/04/24 03:19:14;;;;;;;24.23;10.67;;;;;;;;;;4998725;28;20816;-69
2021/04/24 03:21:40;;;;;;;24.90;11.73;;;;;;;;;;4987683;28;20357;-69
2021/04/24 03:24:06;;;;;;;21.20;10.73;;;;;;;;;;4992738;28;21225;-69
2021/04/24 03:26:32;;;;;;;20.73;10.13;;;;;;;;;;4997115;28;20265;-69
2021/04/24 03:28:58;;;;;;;23.97;11.07;;;;;;;;;;4988439;28;20187;-69
2021/04/24 03:31:23;;;;;;;25.93;11.10;;;;;;;;;;4997461;28;20195;-70
2021/04/24 03:33:48;;;;;;;25.40;10.13;;;;;;;;;;4985121;28;20191;-69
2021/04/24 03:36:14;;;;;;;25.10;10.67;;;;;;;;;;4998681;28;20193;-69
2021/04/24 03:38:40;;;;;;;20.67;9.73;;;;;;;;;;4984217;28;20210;-69
2021/04/24 03:41:07;;;;;;;24.93;10.47;;;;;;;;;;4990224;28;20191;-69
2021/04/24 03:43:33;;;;;;;24.63;11.00;;;;;;;;;;4989103;28;20202;-70
2021/04/24 03:45:59;;;;;;;26.63;11.03;;;;;;;;;;4995722;28;20262;-70
2021/04/24 03:48:24;;;;;;;20.33;9.63;;;;;;;;;;4984330;28;20214;-69
2021/04/24 03:50:50;;;;;;;24.60;11.67;;;;;;;;;;4996937;28;20260;-69
2021/04/24 03:53:15;;;;;;;23.03;10.40;;;;;;;;;;4988947;28;20276;-69
2021/04/24 03:55:41;;;;;;;25.27;10.33;;;;;;;;;;4995114;28;20180;-70
2021/04/24 03:58:06;;;;;;;20.07;10.07;;;;;;;;;;5001619;28;20206;-70
2021/04/24 04:00:32;;;;;;;27.13;10.67;;;;;;;;;;4989078;28;20238;-69
2021/04/24 04:03:00;;;;;;;22.30;10.23;;;;;;;;;;4998423;28;20226;-69
2021/04/24 04:05:31;;;;;;;23.90;10.87;;;;;;;;;;4984639;28;20227;-69
2021/04/24 04:07:57;;;;;;;21.17;9.80;;;;;;;;;;4990814;28;20187;-70
2021/04/24 04:10:23;;;;;;;24.07;10.80;;;;;;;;;;4986718;28;20591;-69
2021/04/24 04:12:49;;;;;;;25.77;11.23;;;;;;;;;;4993031;28;20215;-70
2021/04/24 04:15:16;;;;;;;26.03;10.87;;;;;;;;;;4984106;28;20229;-69
2021/04/24 04:17:49;;;;;;;24.57;10.07;;;;;;;;;;4994263;28;20210;-69
2021/04/24 04:20:15;;;;;;;22.87;9.87;;;;;;;;;;4992033;28;20191;-69
2021/04/24 04:22:40;;;;;;;24.47;10.10;;;;;;;;;;4989542;28;20233;-69
2021/04/24 04:25:06;;;;;;;24.93;10.53;;;;;;;;;;4986412;28;20195;-69
2021/04/24 04:27:31;;;;;;;25.50;10.40;;;;;;;;;;4992188;28;20222;-69
2021/04/24 04:29:57;;;;;;;23.43;9.73;;;;;;;;;;4989253;28;20194;-69
2021/04/24 04:32:22;;;;;;;23.80;10.43;;;;;;;;;;4987919;28;20191;-70
2021/04/24 04:34:48;;;;;;;22.67;9.93;;;;;;;;;;4994505;28;20237;-70
2021/04/24 04:37:13;;;;;;;25.97;11.07;;;;;;;;;;4984123;28;20298;-70
2021/04/24 04:39:40;;;;;;;24.13;10.00;;;;;;;;;;4995079;28;20199;-70
2021/04/24 04:42:06;;;;;;;23.03;10.57;;;;;;;;;;4983871;28;20619;-70
2021/04/24 04:44:32;;;;;;;27.50;10.53;;;;;;;;;;4992154;28;20508;-70
2021/04/24 04:46:57;;;;;;;23.50;9.90;;;;;;;;;;4984749;28;20219;-70
2021/04/24 04:49:22;;;;;;;26.60;10.33;;;;;;;;;;4994511;28;20713;-70
2021/04/24 04:51:48;;;;;;;24.80;10.10;;;;;;;;;;4985905;28;20656;-70
2021/04/24 04:54:13;;;;;;;25.47;9.60;;;;;;;;;;4991059;28;20873;-70
2021/04/24 04:56:38;;;;;;;21.87;9.20;;;;;;;;;;4981930;28;20196;-70
2021/04/24 04:59:04;;;;;;;22.63;8.77;;;;;;;;;;4996488;28;20182;-69
2021/04/24 05:01:30;;;;;;;22.23;9.63;;;;;;;;;;5004507;28;20176;-71
2021/04/24 05:03:55;;;;;;;24.73;10.00;;;;;;;;;;4994654;28;20214;-69
2021/04/24 05:06:20;;;;;;;29.07;10.27;;;;;;;;;;5008992;28;20183;-69
2021/04/24 05:08:46;;;;;;;26.43;10.50;;;;;;;;;;4989808;28;20589;-69
2021/04/24 05:11:11;;;;;;;21.87;10.33;;;;;;;;;;4992041;28;20660;-71
2021/04/24 05:13:36;;;;;;;24.10;10.50;;;;;;;;;;4984424;28;20210;-69
2021/04/24 05:16:02;;;;;;;22.83;10.43;;;;;;;;;;5001966;28;21508;-69
2021/04/24 05:18:27;;;;;;;27.27;11.33;;;;;;;;;;4985728;28;20515;-70
2021/04/24 05:20:53;;;;;;;25.07;12.03;;;;;;;;;;4989188;28;20261;-70
2021/04/24 05:23:18;;;;;;;28.20;11.20;;;;;;;;;;4991329;28;20187;-70
2021/04/24 05:25:44;;;;;;;24.27;11.03;;;;;;;;;;4992618;28;20191;-70
2021/04/24 05:28:09;;;;;;;25.07;11.00;;;;;;;;;;4989011;28;20195;-70
2021/04/24 05:30:35;;;;;;;25.63;11.93;;;;;;;;;;4995180;28;20187;-70
2021/04/24 05:33:00;;;;;;;23.53;11.00;;;;;;;;;;4995568;28;20185;-70
2021/04/24 05:35:25;;;;;;;29.07;11.53;;;;;;;;;;4984870;28;20202;-69
2021/04/24 05:37:52;;;;;;;28.73;11.07;;;;;;;;;;4992502;28;20210;-69
2021/04/24 05:40:18;;;;;;;23.63;10.77;;;;;;;;;;4981866;28;20308;-70
2021/04/24 05:42:43;;;;;;;27.33;11.63;;;;;;;;;;4996867;28;20184;-70
2021/04/24 05:45:10;;;;;;;25.33;11.00;;;;;;;;;;4985540;28;20226;-69
2021/04/24 05:47:37;;;;;;;29.00;11.80;;;;;;;;;;4993937;28;20187;-70
2021/04/24 05:50:04;;;;;;;27.20;11.77;;;;;;;;;;4986947;28;20588;-70
2021/04/24 05:52:29;;;;;;;31.97;12.13;;;;;;;;;;4997802;28;20262;-69
2021/04/24 05:54:54;;;;;;;33.77;13.80;;;;;;;;;;4982844;28;20270;-69
2021/04/24 05:57:20;;;;;;;30.30;12.00;;;;;;;;;;4994000;28;20281;-70
2021/04/24 05:59:45;;;;;;;27.90;12.13;;;;;;;;;;4986120;28;20182;-69
2021/04/24 06:02:10;;;;;;;26.33;12.07;;;;;;;;;;4995602;28;20211;-68
2021/04/24 06:04:35;;;;;;;28.93;12.13;;;;;;;;;;4997507;28;20191;-69
2021/04/24 06:07:01;;;;;;;31.43;12.27;;;;;;;;;;4989138;28;20640;-70
2021/04/24 06:09:27;;;;;;;27.43;11.80;;;;;;;;;;4998905;28;20185;-70
2021/04/24 06:11:52;;;;;;;29.63;12.13;;;;;;;;;;4983754;28;20655;-70
2021/04/24 06:14:17;;;;;;;22.47;10.53;;;;;;;;;;4993667;28;20197;-69
2021/04/24 06:16:43;;;;;;;25.93;11.07;;;;;;;;;;4984562;28;20195;-69
2021/04/24 06:19:08;;;;;;;25.23;11.13;;;;;;;;;;4301526;28;10000757;-70
2021/04/24 06:21:33;;;;;;;24.77;11.43;;;;;;;;;;4979188;28;20230;-70
2021/04/24 06:23:59;;;;;;;25.27;11.10;;;;;;;;;;4988489;28;20653;-69
2021/04/24 06:26:24;;;;;;;21.20;10.67;;;;;;;;;;4981502;28;20648;-70
2021/04/24 06:28:49;;;;;;;22.10;10.87;;;;;;;;;;4986547;28;20190;-69
2021/04/24 06:31:15;;;;;;;18.90;9.83;;;;;;;;;;4976682;28;20201;-69
2021/04/24 06:33:40;;;;;;;17.90;9.30;;;;;;;;;;4985478;28;20191;-69
2021/04/24 06:36:06;;;;;;;19.13;9.93;;;;;;;;;;4993493;28;20196;-70
2021/04/24 06:38:32;;;;;;;19.57;9.53;;;;;;;;;;4978360;28;20211;-70
2021/04/24 06:40:57;;;;;;;18.57;8.87;;;;;;;;;;4989634;28;20233;-70
2021/04/24 06:43:22;;;;;;;19.23;8.67;;;;;;;;;;4979149;28;20195;-70
2021/04/24 06:45:48;;;;;;;21.10;8.37;;;;;;;;;;4990625;28;20238;-70
2021/04/24 06:48:14;;;;;;;20.83;9.03;;;;;;;;;;4980988;28;20246;-70
2021/04/24 06:50:39;;;;;;;23.23;9.37;;;;;;;;;;4991090;28;20195;-70
2021/04/24 06:53:04;;;;;;;19.83;8.57;;;;;;;;;;4982993;28;20202;-70
2021/04/24 06:55:30;;;;;;;14.53;7.40;;;;;;;;;;4992164;28;20300;-70
2021/04/24 06:57:56;;;;;;;16.93;8.47;;;;;;;;;;4982171;28;20626;-70
2021/04/24 07:00:22;;;;;;;13.93;7.90;;;;;;;;;;4988238;28;20187;-70
2021/04/24 07:02:47;;;;;;;20.33;8.63;;;;;;;;;;4980411;28;20215;-70
2021/04/24 07:05:13;;;;;;;14.47;6.93;;;;;;;;;;4988407;28;20190;-70
2021/04/24 07:07:40;;;;;;;18.17;7.53;;;;;;;;;;4985787;28;20192;-70
2021/04/24 07:10:07;;;;;;;14.17;7.50;;;;;;;;;;4980414;28;20574;-70
2021/04/24 07:12:33;;;;;;;14.67;7.10;;;;;;;;;;4987257;28;20918;-70
2021/04/24 07:14:59;;;;;;;24.10;9.73;;;;;;;;;;4978141;28;20269;-70
2021/04/24 07:17:25;;;;;;;18.00;8.23;;;;;;;;;;4982268;28;20343;-70
2021/04/24 07:19:50;;;;;;;14.93;7.00;;;;;;;;;;4975870;28;20565;-69
2021/04/24 07:22:16;;;;;;;15.40;7.07;;;;;;;;;;4980193;28;20206;-69
2021/04/24 07:24:44;;;;;;;14.63;7.20;;;;;;;;;;4972550;28;20194;-70
2021/04/24 07:27:11;;;;;;;20.87;8.23;;;;;;;;;;4979643;28;20203;-70
2021/04/24 07:29:36;;;;;;;16.23;6.90;;;;;;;;;;4974708;28;20703;-70
2021/04/24 07:32:01;;;;;;;16.50;7.10;;;;;;;;;;4986907;28;20196;-69
2021/04/24 07:34:27;;;;;;;16.52;7.10;;;;;;;;;;4978927;28;20198;-69
2021/04/24 07:36:52;;;;;;;14.87;6.73;;;;;;;;;;4989644;28;20198;-70
2021/04/24 07:39:17;;;;;;;17.57;7.47;;;;;;;;;;4989776;28;20191;-69
2021/04/24 07:41:43;;;;;;;11.82;6.40;;;;;;;;;;4974908;28;20265;-69
2021/04/24 07:44:08;;;;;;;16.83;6.80;;;;;;;;;;4987960;28;20190;-69
2021/04/24 07:46:34;;;;;;;14.05;6.70;;;;;;;;;;4979079;28;20270;-70
2021/04/24 07:48:59;;;;;;;19.13;7.15;;;;;;;;;;4988836;28;20208;-69
2021/04/24 07:51:24;;;;;;;17.77;8.50;;;;;;;;;;4980829;28;20238;-70
2021/04/24 07:53:50;;;;;;;13.73;5.93;;;;;;;;;;4990009;28;20281;-69
2021/04/24 07:56:15;;;;;;;12.75;6.20;;;;;;;;;;4984589;28;20225;-69
2021/04/24 07:58:40;;;;;;;11.43;5.78;;;;;;;;;;4989870;28;20233;-69
2021/04/24 08:01:06;;;;;;;10.27;5.65;;;;;;;;;;4983937;28;20681;-69
2021/04/24 08:03:31;;;;;;;14.40;5.82;;;;;;;;;;4991214;28;20210;-69
2021/04/24 08:05:56;;;;;;;10.43;5.97;;;;;;;;;;4632916;28;10001087;-69
2021/04/24 08:08:22;;;;;;;11.05;5.82;;;;;;;;;;4988189;28;20868;-69
2021/04/24 08:10:48;;;;;;;8.10;5.03;;;;;;;;;;4986660;28;20278;-70
2021/04/24 08:13:13;;;;;;;11.20;5.85;;;;;;;;;;4980279;28;20973;-70
2021/04/24 08:15:39;;;;;;;10.48;5.53;;;;;;;;;;4983693;28;20195;-69
2021/04/24 08:18:05;;;;;;;13.05;5.82;;;;;;;;;;4984549;28;20328;-69
2021/04/24 08:20:30;;;;;;;9.15;5.00;;;;;;;;;;4985136;28;20201;-69
2021/04/24 08:22:55;;;;;;;9.30;4.60;;;;;;;;;;4979403;28;20361;-69
2021/04/24 08:25:21;;;;;;;10.82;4.45;;;;;;;;;;4987342;28;20191;-69
2021/04/24 08:27:46;;;;;;;10.82;4.72;;;;;;;;;;4976335;28;20305;-70
2021/04/24 08:30:14;;;;;;;10.02;4.72;;;;;;;;;;4986122;28;21280;-70
2021/04/24 08:32:41;;;;;;;11.80;5.43;;;;;;;;;;4988516;28;20625;-70
2021/04/24 08:35:08;;;;;;;13.32;5.97;;;;;;;;;;4996243;28;20187;-70
2021/04/24 08:37:34;;;;;;;11.23;5.05;;;;;;;;;;4993422;28;20215;-70
2021/04/24 08:40:00;;;;;;;16.67;5.57;;;;;;;;;;4984476;28;20643;-70
2021/04/24 08:42:29;;;;;;;11.60;5.20;;;;;;;;;;4991302;28;20195;-70
2021/04/24 08:44:55;;;;;;;12.43;6.20;;;;;;;;;;4980106;28;20304;-70
2021/04/24 08:47:22;;;;;;;12.48;5.22;;;;;;;;;;4992153;28;20634;-69
2021/04/24 08:49:50;;;;;;;11.10;5.13;;;;;;;;;;4983564;28;20191;-69
2021/04/24 08:52:18;;;;;;;10.90;5.55;;;;;;;;;;4990800;28;20179;-70
2021/04/24 08:54:44;;;;;;;10.23;5.57;;;;;;;;;;4985326;28;20557;-70
2021/04/24 08:57:09;;;;;;;10.82;5.43;;;;;;;;;;4992887;28;20230;-70
2021/04/24 08:59:35;;;;;;;8.80;5.57;;;;;;;;;;4991920;28;20330;-69
2021/04/24 09:02:00;;;;;;;9.70;4.78;;;;;;;;;;4997796;28;20175;-69
2021/04/24 09:04:25;;;;;;;12.10;5.95;;;;;;;;;;4991072;28;20202;-70
2021/04/24 09:06:51;;;;;;;10.38;5.47;;;;;;;;;;4997782;28;20187;-70
2021/04/24 09:09:16;;;;;;;11.68;5.93;;;;;;;;;;4988839;28;20337;-69
2021/04/24 09:11:43;;;;;;;8.93;5.07;;;;;;;;;;4997846;28;20288;-69
2021/04/24 09:14:11;;;;;;;10.55;5.45;;;;;;;;;;4992229;28;20191;-70
2021/04/24 09:16:38;;;;;;;9.85;4.90;;;;;;;;;;4993316;28;20658;-69
2021/04/24 09:19:26;;;;;;;10.07;5.15;;;;;;;;;;4996520;28;20199;-70
2021/04/24 09:22:14;;;;;;;13.48;5.82;;;;;;;;;;4988031;28;20550;-70
2021/04/24 09:24:40;;;;;;;10.25;5.18;;;;;;;;;;4995973;28;20190;-70
2021/04/24 09:27:07;;;;;;;8.57;5.15;;;;;;;;;;4992572;28;20187;-70
2021/04/24 09:29:33;;;;;;;8.32;5.03;;;;;;;;;;4992146;28;21079;-70
2021/04/24 09:32:20;;;;;;;8.10;4.10;;;;;;;;;;4991896;28;20183;-69
2021/04/24 09:34:47;;;;;;;11.77;4.80;;;;;;;;;;4994773;28;20195;-70
2021/04/24 09:37:23;;;;;;;11.55;5.00;;;;;;;;;;4988630;28;20211;-69
2021/04/24 09:39:53;;;;;;;10.80;4.70;;;;;;;;;;4994556;28;20582;-69
2021/04/24 09:42:36;;;;;;;10.23;4.68;;;;;;;;;;4992506;28;20187;-70
2021/04/24 09:45:23;;;;;;;10.40;4.82;;;;;;;;;;4995420;28;20223;-69
2021/04/24 09:47:48;;;;;;;5.75;3.90;;;;;;;;;;4984647;28;20179;-70
2021/04/24 09:50:17;;;;;;;8.45;3.92;;;;;;;;;;4994184;28;20328;-70
2021/04/24 09:52:43;;;;;;;7.88;4.10;;;;;;;;;;4986251;28;20195;-69
2021/04/24 09:55:14;;;;;;;11.25;5.13;;;;;;;;;;4994547;28;20550;-69
2021/04/24 09:57:39;;;;;;;9.20;4.80;;;;;;;;;;4988404;28;20215;-69
2021/04/24 10:00:14;;;;;;;8.98;4.60;;;;;;;;;;4992291;28;20190;-69
2021/04/24 10:02:43;;;;;;;8.25;4.00;;;;;;;;;;4982568;28;20958;-69
2021/04/24 10:05:08;;;;;;;9.00;5.00;;;;;;;;;;4994658;28;20611;-69
2021/04/24 10:07:36;;;;;;;10.27;4.43;;;;;;;;;;4991379;28;20218;-69
2021/04/24 10:10:02;;;;;;;12.27;4.10;;;;;;;;;;4993465;28;20274;-69
2021/04/24 10:12:28;;;;;;;7.95;4.30;;;;;;;;;;4986535;28;20191;-69
2021/04/24 10:14:54;;;;;;;7.20;4.20;;;;;;;;;;4986354;28;20204;-70
2021/04/24 10:17:20;;;;;;;10.75;5.00;;;;;;;;;;4997677;28;20866;-70
2021/04/24 10:19:48;;;;;;;7.22;3.85;;;;;;;;;;4986591;28;20647;-70
2021/04/24 10:22:18;;;;;;;5.93;4.22;;;;;;;;;;4989018;28;20643;-70
2021/04/24 10:24:44;;;;;;;11.93;4.95;;;;;;;;;;4979576;28;20568;-70
2021/04/24 10:27:15;;;;;;;10.40;4.15;;;;;;;;;;4990135;28;20184;-70
2021/04/24 10:29:43;;;;;;;10.02;4.63;;;;;;;;;;4982016;28;20341;-71
2021/04/24 10:32:09;;;;;;;10.10;4.68;;;;;;;;;;4995178;28;20187;-70
2021/04/24 10:34:35;;;;;;;8.68;4.10;;;;;;;;;;4983972;28;20299;-70
2021/04/24 10:37:01;;;;;;;9.60;4.88;;;;;;;;;;4990252;28;20254;-70
2021/04/24 10:39:28;;;;;;;12.30;4.75;;;;;;;;;;4983849;28;20206;-70
2021/04/24 10:41:53;;;;;;;10.88;4.32;;;;;;;;;;4993363;28;20538;-70
2021/04/24 10:44:20;;;;;;;9.95;4.22;;;;;;;;;;4984329;28;20191;-70
2021/04/24 10:46:54;;;;;;;13.70;4.95;;;;;;;;;;4991705;28;20229;-70
2021/04/24 10:49:26;;;;;;;7.88;4.32;;;;;;;;;;4988093;28;20225;-70
2021/04/24 10:52:05;;;;;;;9.02;4.22;;;;;;;;;;4993031;28;20210;-70
2021/04/24 10:54:41;;;;;;;10.65;4.35;;;;;;;;;;4995464;28;20209;-69
2021/04/24 10:57:40;;;;;;;9.25;3.80;;;;;;;;;;4988999;28;20211;-70
2021/04/24 11:00:07;;;;;;;8.30;3.80;;;;;;;;;;4979867;28;20195;-70
2021/04/24 11:02:49;;;;;;;14.07;4.35;;;;;;;;;;4997113;28;20203;-69
2021/04/24 11:05:19;;;;;;;12.50;3.90;;;;;;;;;;4976797;28;20200;-70
2021/04/24 11:07:45;;;;;;;7.85;4.13;;;;;;;;;;4995542;28;20179;-70
2021/04/24 11:10:10;;;;;;;10.25;3.92;;;;;;;;;;4987790;28;20198;-69
2021/04/24 11:12:44;;;;;;;8.13;3.70;;;;;;;;;;4986134;28;20195;-70
2021/04/24 11:15:11;;;;;;;9.05;3.40;;;;;;;;;;4987283;28;20195;-69
2021/04/24 11:17:38;;;;;;;9.05;3.35;;;;;;;;;;4983125;28;20624;-69
2021/04/24 11:20:04;;;;;;;7.03;3.05;;;;;;;;;;4990357;28;20183;-69
2021/04/24 11:22:41;;;;;;;7.32;3.85;;;;;;;;;;4984538;28;20258;-69
2021/04/24 11:25:15;;;;;;;8.23;3.35;;;;;;;;;;4992714;28;20190;-69
2021/04/24 11:27:59;;;;;;;7.80;3.72;;;;;;;;;;4982334;28;20270;-69
2021/04/24 11:30:53;;;;;;;11.93;4.07;;;;;;;;;;4988463;28;20599;-69
2021/04/24 11:33:41;;;;;;;6.60;3.03;;;;;;;;;;4982728;28;20270;-69
2021/04/24 11:39:03;;;;;;;8.10;2.83;;;;;;;;;;4987050;28;20306;-70
2021/04/24 11:41:32;;;;;;;8.63;3.20;;;;;;;;;;4986087;28;20195;-69
2021/04/24 11:44:23;;;;;;;10.52;3.10;;;;;;;;;;4991175;28;20740;-69
2021/04/24 11:46:51;;;;;;;6.68;3.35;;;;;;;;;;4987960;28;20199;-69
2021/04/24 11:49:22;;;;;;;5.35;2.45;;;;;;;;;;4986783;28;20855;-69
2021/04/24 11:51:53;;;;;;;6.45;2.83;;;;;;;;;;4990418;28;20187;-70
2021/04/24 11:54:28;;;;;;;7.53;2.70;;;;;;;;;;4985889;28;20571;-70
2021/04/24 11:56:56;;;;;;;7.32;2.75;;;;;;;;;;4991062;28;20194;-69
2021/04/24 11:59:24;;;;;;;5.65;2.78;;;;;;;;;;4985877;28;20187;-69
2021/04/24 12:01:50;;;;;;;6.13;2.38;;;;;;;;;;4993964;28;20191;-70
2021/04/24 12:04:27;;;;;;;5.35;2.80;;;;;;;;;;4983326;28;20194;-69
2021/04/24 12:07:01;;;;;;;10.80;3.20;;;;;;;;;;4987949;28;20282;-69
2021/04/24 12:09:26;;;;;;;8.02;2.80;;;;;;;;;;4988028;28;20201;-70
2021/04/24 12:11:57;;;;;;;8.02;3.08;;;;;;;;;;4993700;28;20281;-70
2021/04/24 12:14:25;;;;;;;6.28;2.30;;;;;;;;;;4984787;28;20201;-70
2021/04/24 12:16:52;;;;;;;7.93;2.53;;;;;;;;;;4993227;28;20194;-69
2021/04/24 12:19:24;;;;;;;10.18;2.60;;;;;;;;;;4987105;28;21138;-70
2021/04/24 12:22:01;;;;;;;4.78;1.50;;;;;;;;;;4996042;28;21452;-69
2021/04/24 12:24:27;;;;;;;5.53;2.30;;;;;;;;;;4989378;28;20253;-70
2021/04/24 12:26:52;;;;;;;7.03;1.65;;;;;;;;;;4993572;28;20868;-69
2021/04/24 12:29:44;;;;;;;2.97;1.80;;;;;;;;;;4995200;28;20555;-69
2021/04/24 12:32:17;;;;;;;4.03;1.63;;;;;;;;;;4992076;28;20183;-69
2021/04/24 12:34:43;;;;;;;7.22;1.75;;;;;;;;;;4990173;28;20210;-69
2021/04/24 12:37:10;;;;;;;6.28;1.58;;;;;;;;;;4989543;28;20243;-69
2021/04/24 12:39:39;;;;;;;5.90;1.45;;;;;;;;;;5010377;28;20249;-69
2021/04/24 12:42:08;;;;;;;5.72;1.30;;;;;;;;;;4985236;28;20191;-69
2021/04/24 12:44:33;;;;;;;4.07;1.40;;;;;;;;;;4997335;28;20191;-69
2021/04/24 12:46:59;;;;;;;5.43;1.40;;;;;;;;;;4983021;28;20559;-69
2021/04/24 12:49:24;;;;;;;5.15;1.30;;;;;;;;;;4995728;28;20237;-69
2021/04/24 12:52:03;;;;;;;4.32;1.40;;;;;;;;;;4987421;28;20543;-70
2021/04/24 12:54:29;;;;;;;3.47;1.23;;;;;;;;;;4992524;28;20191;-70
2021/04/24 12:57:19;;;;;;;2.75;0.95;;;;;;;;;;4982946;28;20194;-70
2021/04/24 12:59:58;;;;;;;2.47;0.70;;;;;;;;;;4987193;28;20199;-69
2021/04/24 13:02:38;;;;;;;4.93;1.00;;;;;;;;;;4977241;28;20273;-69
2021/04/24 13:05:08;;;;;;;3.10;0.77;;;;;;;;;;4990276;28;20190;-69
2021/04/24 13:07:34;;;;;;;1.67;0.90;;;;;;;;;;4982965;28;20229;-69
2021/04/24 13:09:59;;;;;;;3.83;1.00;;;;;;;;;;4989583;28;20692;-69
2021/04/24 13:12:25;;;;;;;3.10;1.10;;;;;;;;;;4982821;28;20509;-69
2021/04/24 13:14:52;;;;;;;6.53;1.10;;;;;;;;;;4992080;28;20195;-69
2021/04/24 13:17:20;;;;;;;2.67;0.70;;;;;;;;;;4982214;28;20222;-69
2021/04/24 13:19:55;;;;;;;4.63;1.10;;;;;;;;;;4990621;28;20211;-69
2021/04/24 13:22:40;;;;;;;3.97;1.17;;;;;;;;;;4984934;28;20186;-69
2021/04/24 13:25:08;;;;;;;2.22;1.00;;;;;;;;;;4991990;28;20278;-69
2021/04/24 13:27:34;;;;;;;2.67;1.10;;;;;;;;;;4985966;28;20198;-69
2021/04/24 13:30:00;;;;;;;5.97;1.30;;;;;;;;;;4992319;28;20619;-68
2021/04/24 13:32:25;;;;;;;4.88;1.40;;;;;;;;;;4989530;28;20188;-69
2021/04/24 13:34:55;;;;;;;3.10;1.20;;;;;;;;;;4981586;28;20270;-70
2021/04/24 13:37:31;;;;;;;5.32;1.67;;;;;;;;;;4992124;28;20216;-69
2021/04/24 13:40:03;;;;;;;3.85;1.08;;;;;;;;;;4980709;28;20277;-68
2021/04/24 13:42:39;;;;;;;2.10;0.82;;;;;;;;;;4990309;28;20223;-68
2021/04/24 13:45:14;;;;;;;4.07;1.45;;;;;;;;;;4982936;28;20293;-68
2021/04/24 13:47:44;;;;;;;6.47;1.55;;;;;;;;;;4996204;28;20320;-68
2021/04/24 13:50:11;;;;;;;3.90;1.80;;;;;;;;;;4980750;28;20218;-70
2021/04/24 13:52:37;;;;;;;5.00;1.52;;;;;;;;;;4992615;28;20190;-69
2021/04/24 13:55:05;;;;;;;3.70;1.20;;;;;;;;;;4979896;28;20214;-68
2021/04/24 13:57:31;;;;;;;4.55;1.33;;;;;;;;;;4995157;28;20697;-68
2021/04/24 13:59:56;;;;;;;5.60;1.42;;;;;;;;;;4983162;28;20266;-69
2021/04/24 14:02:22;;;;;;;6.28;1.83;;;;;;;;;;4995783;28;20337;-69
2021/04/24 14:04:47;;;;;;;8.88;1.77;;;;;;;;;;4299861;28;10000475;-69
2021/04/24 14:07:12;;;;;;;7.93;1.45;;;;;;;;;;4990923;28;20184;-68
2021/04/24 14:09:38;;;;;;;7.72;1.70;;;;;;;;;;4983561;28;20183;-69
2021/04/24 14:12:04;;;;;;;5.03;1.23;;;;;;;;;;4986258;28;20183;-69
2021/04/24 14:14:29;;;;;;;6.97;1.55;;;;;;;;;;4986719;28;20206;-69
2021/04/24 14:16:55;;;;;;;6.13;1.30;;;;;;;;;;4981163;28;20195;-69
2021/04/24 14:19:20;;;;;;;8.10;1.55;;;;;;;;;;4991374;28;20742;-68
2021/04/24 14:21:46;;;;;;;7.30;1.50;;;;;;;;;;4980144;28;20187;-69
2021/04/24 14:24:12;;;;;;;5.85;1.15;;;;;;;;;;4986492;28;20299;-69
2021/04/24 14:26:38;;;;;;;4.65;1.40;;;;;;;;;;4981962;28;20506;-69
2021/04/24 14:29:06;;;;;;;3.67;1.25;;;;;;;;;;4985951;28;20260;-69
2021/04/24 14:31:31;;;;;;;5.68;1.42;;;;;;;;;;4973587;28;20310;-69
2021/04/24 14:33:57;;;;;;;3.80;1.15;;;;;;;;;;4989935;28;20241;-69